Time;durP1;ratioP1;P1;durP2;ratioP2;P2;SDS_P1;SDS_P2;PMS_P1;PMS_P2;Temp;Humidity;BMP_temperature;BMP_pressure;BME280_temperature;BME280_humidity;BME280_pressure;Samples;Min_cycle;Max_cycle;Signal;HPM_P1;HPM_P2
2023/04/24 00:00:25;;;;;;;21.40;8.20;;;;;;;12.83;75.43;99264.27;110306;1277;22123;-60
2023/04/24 00:03:16;;;;;;;18.70;7.90;;;;;;;12.80;75.24;99259.64;110294;1277;22889;-61
2023/04/24 00:05:47;;;;;;;21.20;8.10;;;;;;;12.80;75.28;99259.19;110295;1266;22236;-60
2023/04/24 00:08:19;;;;;;;20.50;8.30;;;;;;;12.80;75.45;99256.19;110271;1266;22178;-60
2023/04/24 00:10:50;;;;;;;21.10;8.40;;;;;;;12.79;75.50;99253.90;110224;1266;22392;-60
2023/04/24 00:13:20;;;;;;;17.80;7.70;;;;;;;12.79;75.78;99253.69;110267;1275;22174;-61
2023/04/24 00:15:51;;;;;;;16.60;7.70;;;;;;;12.78;75.83;99245.71;110255;1270;22461;-60
2023/04/24 00:18:22;;;;;;;20.00;8.50;;;;;;;12.78;76.02;99247.59;110280;1277;22206;-60
2023/04/24 00:20:53;;;;;;;20.00;8.70;;;;;;;12.77;76.15;99245.20;110294;1270;22407;-60
2023/04/24 00:23:24;;;;;;;21.00;7.40;;;;;;;12.76;76.20;99242.61;110286;1274;22837;-62
2023/04/24 00:25:55;;;;;;;18.90;8.90;;;;;;;12.76;76.16;99239.45;110291;1269;22211;-62
2023/04/24 00:28:26;;;;;;;20.80;8.20;;;;;;;12.75;76.53;99237.11;110302;1270;22901;-60
2023/04/24 00:30:56;;;;;;;18.30;7.70;;;;;;;12.74;76.44;99235.60;110293;1269;22405;-61
2023/04/24 00:33:27;;;;;;;19.70;8.60;;;;;;;12.72;76.89;99230.52;110330;1277;23024;-62
2023/04/24 00:35:58;;;;;;;21.10;8.10;;;;;;;12.71;76.88;99226.40;110283;1267;22422;-61
2023/04/24 00:38:29;;;;;;;20.00;8.60;;;;;;;12.70;77.02;99223.45;110293;1270;22199;-61
2023/04/24 00:41:00;;;;;;;19.30;8.80;;;;;;;12.70;77.29;99223.71;110302;1268;22491;-61
2023/04/24 00:43:31;;;;;;;20.90;7.80;;;;;;;12.69;77.12;99225.33;110287;1264;23101;-61
2023/04/24 00:46:02;;;;;;;16.60;7.00;;;;;;;12.67;77.53;99226.25;110302;1270;22861;-60
2023/04/24 00:48:34;;;;;;;19.20;8.30;;;;;;;12.65;77.42;99217.31;110293;1277;22244;-62
2023/04/24 00:51:05;;;;;;;18.30;8.20;;;;;;;12.66;77.04;99213.69;110271;1270;22168;-61
2023/04/24 00:53:36;;;;;;;20.70;8.90;;;;;;;12.67;77.39;99212.67;110324;1270;22335;-61
2023/04/24 00:56:08;;;;;;;18.90;8.70;;;;;;;12.68;77.53;99212.36;110324;1270;22131;-62
2023/04/24 00:58:39;;;;;;;21.30;9.50;;;;;;;12.70;77.81;99211.70;110296;1266;22166;-61
2023/04/24 01:01:11;;;;;;;19.30;9.40;;;;;;;12.70;78.01;99212.35;110302;1270;22870;-62
2023/04/24 01:03:42;;;;;;;25.50;9.90;;;;;;;12.71;78.36;99211.48;110287;1273;22187;-60
2023/04/24 01:06:13;;;;;;;20.30;9.20;;;;;;;12.73;78.85;99210.25;110292;1276;22334;-61
2023/04/24 01:08:46;;;;;;;20.00;9.70;;;;;;;12.72;79.31;99207.10;110319;1271;22211;-61
2023/04/24 01:11:18;;;;;;;17.30;8.30;;;;;;;12.71;79.10;99205.73;110094;1270;22212;-61
2023/04/24 01:13:49;;;;;;;21.20;9.50;;;;;;;12.71;79.25;99203.48;110110;1275;22208;-60
2023/04/24 01:16:20;;;;;;;22.30;9.20;;;;;;;12.70;79.52;99199.08;110133;1270;22170;-61
2023/04/24 01:18:51;;;;;;;19.90;9.30;;;;;;;12.68;79.77;99201.77;110077;1272;22384;-61
2023/04/24 01:21:24;;;;;;;21.10;10.00;;;;;;;12.66;79.56;99202.34;110097;1279;23082;-61
2023/04/24 01:23:56;;;;;;;21.00;10.10;;;;;;;12.66;79.56;99199.38;110114;1271;22225;-62
2023/04/24 01:26:26;;;;;;;22.90;10.00;;;;;;;12.66;79.94;99200.77;110113;1271;22902;-62
2023/04/24 01:28:58;;;;;;;21.40;10.60;;;;;;;12.65;79.84;99201.08;110144;1271;22248;-61
2023/04/24 01:31:29;;;;;;;24.30;10.40;;;;;;;12.65;79.99;99200.56;110105;1271;22212;-60
2023/04/24 01:34:00;;;;;;;22.20;10.10;;;;;;;12.64;79.98;99198.89;110139;1263;22188;-61
2023/04/24 01:36:32;;;;;;;21.70;9.80;;;;;;;12.64;80.27;99198.42;110106;1279;22339;-60
2023/04/24 01:39:03;;;;;;;20.60;9.50;;;;;;;12.62;80.36;99197.22;110102;1264;23143;-61
2023/04/24 01:41:34;;;;;;;23.20;10.10;;;;;;;12.61;80.35;99193.00;110092;1273;22349;-61
2023/04/24 01:44:05;;;;;;;22.20;10.20;;;;;;;12.60;80.68;99189.14;110111;1268;22147;-62
2023/04/24 01:46:37;;;;;;;20.00;10.20;;;;;;;12.60;80.31;99187.42;110117;1270;22270;-61
2023/04/24 01:49:08;;;;;;;20.90;10.30;;;;;;;12.59;80.52;99186.26;110112;1263;22417;-60
2023/04/24 01:51:39;;;;;;;20.20;10.00;;;;;;;12.60;80.58;99185.18;110105;1271;22174;-62
2023/04/24 01:54:09;;;;;;;24.90;11.80;;;;;;;12.60;80.61;99186.90;110115;1270;22234;-62
2023/04/24 01:56:43;;;;;;;21.40;11.00;;;;;;;12.61;80.87;99184.70;110136;1270;22179;-61
2023/04/24 01:59:16;;;;;;;23.60;11.70;;;;;;;12.62;81.00;99186.83;110116;1268;22386;-62
2023/04/24 02:01:47;;;;;;;20.60;11.10;;;;;;;12.62;80.90;99186.02;106363;1279;25435;-61
2023/04/24 02:04:18;;;;;;;23.20;12.10;;;;;;;12.62;81.02;99182.46;106394;1276;24758;-60
2023/04/24 02:06:49;;;;;;;26.50;12.80;;;;;;;12.62;80.99;99183.07;106471;1278;23000;-62
2023/04/24 02:09:20;;;;;;;26.00;12.30;;;;;;;12.61;80.89;99176.92;110097;1273;22207;-60
2023/04/24 02:11:51;;;;;;;26.90;12.50;;;;;;;12.61;81.04;99175.02;110266;1270;22235;-62
2023/04/24 02:14:22;;;;;;;24.50;12.00;;;;;;;12.62;81.17;99171.83;110280;1270;23038;-60
2023/04/24 02:16:53;;;;;;;24.30;13.30;;;;;;;12.63;81.14;99170.80;110226;1273;22231;-61
2023/04/24 02:19:24;;;;;;;26.20;13.20;;;;;;;12.63;81.25;99167.48;110271;1270;22218;-61
2023/04/24 02:21:54;;;;;;;22.90;12.40;;;;;;;12.62;81.54;99171.05;109821;1270;22517;-58
2023/04/24 02:24:25;;;;;;;28.50;12.50;;;;;;;12.61;81.47;99171.48;106503;1277;23064;-60
2023/04/24 02:26:57;;;;;;;21.70;11.30;;;;;;;12.60;81.70;99169.70;106604;1273;26790;-61
2023/04/24 02:29:29;;;;;;;27.30;13.40;;;;;;;12.61;81.52;99169.28;110264;1269;22198;-61
2023/04/24 02:32:00;;;;;;;23.30;12.10;;;;;;;12.61;81.50;99164.04;110270;1271;22243;-62
2023/04/24 02:34:31;;;;;;;24.30;12.10;;;;;;;12.61;81.67;99166.79;110281;1273;22406;-60
2023/04/24 02:37:01;;;;;;;23.50;11.80;;;;;;;12.60;81.70;99162.77;110289;1270;22412;-60
2023/04/24 02:39:32;;;;;;;24.30;12.50;;;;;;;12.60;81.84;99155.14;110308;1270;22443;-66
2023/04/24 02:42:03;;;;;;;29.00;12.90;;;;;;;12.62;81.63;99153.80;110297;1264;22147;-62
2023/04/24 02:44:34;;;;;;;24.20;12.80;;;;;;;12.64;81.72;99145.17;110266;1267;22217;-62
2023/04/24 02:47:05;;;;;;;25.80;12.60;;;;;;;12.65;81.55;99141.41;110277;1264;23354;-61
2023/04/24 02:49:36;;;;;;;24.40;12.40;;;;;;;12.66;81.54;99142.77;110248;1270;22960;-61
2023/04/24 02:52:07;;;;;;;30.10;14.00;;;;;;;12.67;81.61;99134.47;110262;1264;22231;-62
2023/04/24 02:54:38;;;;;;;25.20;13.40;;;;;;;12.68;81.53;99133.65;106660;1277;22564;-60
2023/04/24 02:57:09;;;;;;;23.30;11.50;;;;;;;12.68;81.52;99129.89;110283;1266;22241;-62
2023/04/24 02:59:40;;;;;;;24.10;12.30;;;;;;;12.67;81.71;99129.73;110291;1266;22206;-63
2023/04/24 03:02:11;;;;;;;25.50;11.60;;;;;;;12.65;81.69;99126.70;110352;1269;22133;-62
2023/04/24 03:04:42;;;;;;;25.70;12.80;;;;;;;12.64;82.02;99127.05;110367;1265;22875;-61
2023/04/24 03:07:14;;;;;;;26.20;12.40;;;;;;;12.64;82.19;99128.13;110338;1270;22154;-61
2023/04/24 03:09:45;;;;;;;23.00;11.70;;;;;;;12.64;82.24;99130.48;110366;1269;22186;-62
2023/04/24 03:12:17;;;;;;;25.40;11.60;;;;;;;12.62;82.10;99127.79;110358;1276;22252;-62
2023/04/24 03:14:48;;;;;;;22.20;11.80;;;;;;;12.63;81.83;99125.54;110373;1270;22229;-61
2023/04/24 03:17:19;;;;;;;22.00;11.00;;;;;;;12.64;81.85;99123.66;110367;1270;22901;-61
2023/04/24 03:19:50;;;;;;;26.30;12.30;;;;;;;12.65;81.82;99124.35;110360;1270;22243;-61
2023/04/24 03:22:21;;;;;;;23.90;11.20;;;;;;;12.66;81.78;99125.27;110339;1268;22233;-62
2023/04/24 03:24:51;;;;;;;24.90;11.10;;;;;;;12.66;81.90;99126.69;110345;1269;22352;-62
2023/04/24 03:27:22;;;;;;;25.90;11.70;;;;;;;12.65;81.94;99124.30;110378;1276;23466;-62
2023/04/24 03:29:55;;;;;;;28.80;12.20;;;;;;;12.64;81.87;99122.27;110355;1270;22252;-62
2023/04/24 03:32:26;;;;;;;24.30;12.20;;;;;;;12.63;81.98;99122.64;110354;1270;22273;-62
2023/04/24 03:34:57;;;;;;;20.70;10.80;;;;;;;12.64;82.00;99126.81;110377;1265;22256;-63
2023/04/24 03:37:27;;;;;;;20.70;9.70;;;;;;;12.65;82.13;99123.84;110348;1270;23129;-63
2023/04/24 03:39:58;;;;;;;25.80;10.30;;;;;;;12.64;82.11;99120.39;110349;1269;22936;-62
2023/04/24 03:42:29;;;;;;;24.30;11.70;;;;;;;12.64;82.27;99124.61;110383;1262;22194;-63
2023/04/24 03:45:00;;;;;;;24.10;12.40;;;;;;;12.66;82.32;99128.73;110343;1265;23145;-61
2023/04/24 03:47:31;;;;;;;22.30;11.80;;;;;;;12.66;82.38;99128.77;110368;1270;22348;-62
2023/04/24 03:50:02;;;;;;;24.00;11.60;;;;;;;12.65;82.32;99131.23;110322;1270;22311;-63
2023/04/24 03:52:33;;;;;;;24.70;11.30;;;;;;;12.64;82.59;99132.62;110352;1265;22151;-66
2023/04/24 03:55:04;;;;;;;25.00;12.10;;;;;;;12.63;82.57;99141.58;110390;1262;22188;-62
2023/04/24 03:57:35;;;;;;;21.80;10.80;;;;;;;12.61;82.62;99150.35;110375;1276;22164;-62
2023/04/24 04:00:08;;;;;;;24.10;11.40;;;;;;;12.61;82.67;99156.40;110362;1269;22236;-61
2023/04/24 04:02:39;;;;;;;25.80;12.00;;;;;;;12.60;82.56;99160.59;110330;1269;22392;-62
2023/04/24 04:05:11;;;;;;;23.40;11.60;;;;;;;12.59;82.38;99161.88;110357;1266;22321;-63
2023/04/24 04:07:41;;;;;;;23.30;11.30;;;;;;;12.60;82.70;99164.09;108084;1262;22646;-64
2023/04/24 04:10:12;;;;;;;22.70;12.10;;;;;;;12.60;82.42;99159.83;106538;1270;22673;-59
2023/04/24 04:12:44;;;;;;;22.90;10.60;;;;;;;12.60;82.68;99159.69;106553;1276;22517;-58
2023/04/24 04:15:14;;;;;;;26.10;13.30;;;;;;;12.60;82.37;99155.61;106497;1270;26211;-60
2023/04/24 04:17:46;;;;;;;24.80;12.40;;;;;;;12.59;82.45;99152.56;106481;1273;22634;-61
2023/04/24 04:20:17;;;;;;;33.00;12.70;;;;;;;12.56;82.48;99152.62;106516;1262;22576;-60
2023/04/24 04:22:47;;;;;;;32.60;14.60;;;;;;;12.53;82.70;99149.34;106499;1276;22862;-61
2023/04/24 04:25:19;;;;;;;30.00;13.90;;;;;;;12.50;82.68;99149.45;108954;1270;24462;-60
2023/04/24 04:27:50;;;;;;;28.60;13.30;;;;;;;12.50;82.71;99151.38;110331;1269;22465;-62
2023/04/24 04:30:23;;;;;;;30.90;13.00;;;;;;;12.50;82.71;99147.58;107789;1270;22632;-61
2023/04/24 04:32:54;;;;;;;28.00;12.50;;;;;;;12.50;82.84;99142.16;106528;1256;22787;-58
2023/04/24 04:35:25;;;;;;;24.60;11.20;;;;;;;12.51;82.49;99140.84;106486;1276;24499;-59
2023/04/24 04:37:58;;;;;;;26.40;12.70;;;;;;;12.51;82.71;99142.08;106359;1271;24963;-60
2023/04/24 04:40:29;;;;;;;28.30;13.00;;;;;;;12.51;82.79;99143.59;110303;1270;22323;-62
2023/04/24 04:43:00;;;;;;;26.50;11.70;;;;;;;12.49;82.64;99140.39;110305;1269;22178;-62
2023/04/24 04:45:32;;;;;;;22.70;11.00;;;;;;;12.49;82.62;99139.93;110380;1269;22926;-62
2023/04/24 04:48:03;;;;;;;23.20;10.80;;;;;;;12.49;82.70;99141.92;110328;1270;22231;-62
2023/04/24 04:50:34;;;;;;;24.50;11.60;;;;;;;12.50;82.71;99147.25;110311;1276;22419;-58
2023/04/24 04:53:05;;;;;;;27.00;12.40;;;;;;;12.51;82.81;99153.06;110301;1268;22222;-60
2023/04/24 04:55:36;;;;;;;27.90;11.80;;;;;;;12.52;82.90;99150.87;110358;1273;22589;-59
2023/04/24 04:58:07;;;;;;;26.30;12.60;;;;;;;12.53;82.74;99148.31;110356;1269;22183;-60
2023/04/24 05:00:38;;;;;;;24.80;11.20;;;;;;;12.55;82.85;99151.20;110351;1262;22197;-58
2023/04/24 05:03:09;;;;;;;28.40;12.50;;;;;;;12.56;82.54;99150.54;109115;1269;22531;-58
2023/04/24 05:05:41;;;;;;;30.20;13.50;;;;;;;12.57;82.43;99154.35;106602;1262;25354;-57
2023/04/24 05:08:12;;;;;;;33.40;14.30;;;;;;;12.58;82.64;99150.52;110379;1262;22228;-60
2023/04/24 05:10:43;;;;;;;30.50;13.80;;;;;;;12.59;82.62;99149.80;110354;1265;22386;-60
2023/04/24 05:13:14;;;;;;;25.50;12.20;;;;;;;12.59;82.69;99151.28;110336;1262;22488;-60
2023/04/24 05:15:46;;;;;;;23.70;11.30;;;;;;;12.60;82.79;99155.39;110340;1270;22543;-60
2023/04/24 05:18:16;;;;;;;20.70;10.30;;;;;;;12.62;82.68;99147.09;109403;1273;26055;-60
2023/04/24 05:20:47;;;;;;;24.20;10.30;;;;;;;12.65;82.75;99145.73;106445;1253;22673;-59
2023/04/24 05:23:18;;;;;;;26.90;10.20;;;;;;;12.68;82.86;99142.86;106627;1276;22812;-60
2023/04/24 05:25:49;;;;;;;21.40;11.30;;;;;;;12.72;82.72;99144.88;106699;1272;22524;-58
2023/04/24 05:28:20;;;;;;;29.70;11.80;;;;;;;12.75;82.69;99142.88;106702;1273;22530;-59
2023/04/24 05:30:52;;;;;;;23.30;12.20;;;;;;;12.78;82.86;99145.39;110300;1269;22947;-62
2023/04/24 05:33:23;;;;;;;24.10;12.40;;;;;;;12.82;83.37;99142.30;110392;1270;22884;-60
2023/04/24 05:35:53;;;;;;;28.20;12.40;;;;;;;12.84;83.39;99144.52;110329;1271;22162;-61
2023/04/24 05:38:24;;;;;;;22.80;11.70;;;;;;;12.87;83.43;99149.70;110353;1270;22290;-61
2023/04/24 05:40:55;;;;;;;24.50;11.10;;;;;;;12.92;83.52;99146.55;110323;1273;22965;-61
2023/04/24 05:43:26;;;;;;;24.40;11.20;;;;;;;12.97;83.44;99146.36;110342;1273;22223;-59
2023/04/24 05:45:57;;;;;;;24.10;11.40;;;;;;;13.03;83.28;99146.94;110351;1269;22433;-60
2023/04/24 05:48:28;;;;;;;26.80;10.80;;;;;;;13.10;83.38;99149.09;110352;1276;22320;-61
2023/04/24 05:50:58;;;;;;;27.80;11.40;;;;;;;13.15;83.24;99151.59;110379;1271;23216;-61
2023/04/24 05:53:30;;;;;;;20.90;10.40;;;;;;;13.20;82.87;99149.86;110361;1272;23286;-61
2023/04/24 05:56:01;;;;;;;24.60;11.70;;;;;;;13.24;82.73;99154.35;110373;1268;23259;-60
2023/04/24 05:58:32;;;;;;;21.40;9.00;;;;;;;13.29;82.62;99153.75;110339;1272;22390;-59
2023/04/24 06:01:03;;;;;;;22.60;9.30;;;;;;;13.35;82.43;99157.37;110345;1275;22431;-61
2023/04/24 06:03:34;;;;;;;18.80;7.70;;;;;;;13.41;82.23;99156.19;110370;1276;22317;-59
2023/04/24 06:06:06;;;;;;;20.00;7.30;;;;;;;13.49;81.96;99159.21;110387;1270;22215;-60
2023/04/24 06:08:37;;;;;;;15.80;6.90;;;;;;;13.58;81.47;99160.09;110374;1272;22202;-61
2023/04/24 06:11:08;;;;;;;20.60;7.10;;;;;;;13.66;81.07;99157.36;110335;1269;22438;-60
2023/04/24 06:13:38;;;;;;;22.00;6.70;;;;;;;13.74;80.69;99158.55;110335;1273;22189;-59
2023/04/24 06:16:10;;;;;;;17.60;6.20;;;;;;;13.83;80.51;99162.63;110346;1269;22176;-60
2023/04/24 06:18:40;;;;;;;18.00;6.50;;;;;;;13.91;80.13;99163.92;108881;1262;22544;-59
2023/04/24 06:21:11;;;;;;;19.50;5.90;;;;;;;13.98;79.86;99160.81;106687;1276;24787;-61
2023/04/24 06:23:42;;;;;;;16.10;6.20;;;;;;;14.06;79.70;99163.63;106685;1273;22652;-59
2023/04/24 06:26:13;;;;;;;21.10;6.30;;;;;;;14.12;79.49;99160.90;106732;1273;24389;-59
2023/04/24 06:28:44;;;;;;;15.40;5.40;;;;;;;14.18;78.98;99160.38;106607;1276;22520;-60
2023/04/24 06:31:14;;;;;;;13.70;3.50;;;;;;;14.23;78.41;99161.95;106583;1273;22474;-58
2023/04/24 06:33:45;;;;;;;13.90;4.50;;;;;;;14.27;78.29;99161.34;106578;1269;22951;-61
2023/04/24 06:36:16;;;;;;;16.60;5.00;;;;;;;14.30;77.79;99161.81;106591;1276;24249;-59
2023/04/24 06:38:47;;;;;;;11.60;3.80;;;;;;;14.33;77.35;99166.27;110338;1269;22359;-61
2023/04/24 06:41:18;;;;;;;12.90;3.90;;;;;;;14.35;76.95;99160.98;110355;1271;22936;-60
2023/04/24 06:43:49;;;;;;;13.60;4.40;;;;;;;14.37;77.09;99161.11;110363;1270;22245;-61
2023/04/24 06:46:22;;;;;;;14.20;4.30;;;;;;;14.41;76.68;99158.41;110355;1270;22118;-61
2023/04/24 06:48:55;;;;;;;13.60;4.50;;;;;;;14.46;76.35;99159.14;106580;1269;22651;-61
2023/04/24 06:51:27;;;;;;;11.50;4.20;;;;;;;14.51;76.25;99155.80;106634;1267;24187;-60
2023/04/24 06:53:58;;;;;;;12.10;3.60;;;;;;;14.56;76.15;99159.32;110357;1268;22247;-60
2023/04/24 06:56:29;;;;;;;12.80;3.80;;;;;;;14.59;75.79;99156.56;110361;1270;22931;-62
2023/04/24 06:59:00;;;;;;;13.30;4.20;;;;;;;14.63;75.59;99158.30;110376;1271;22275;-61
2023/04/24 07:01:31;;;;;;;15.60;4.90;;;;;;;14.66;75.67;99160.05;110318;1271;22854;-61
2023/04/24 07:04:02;;;;;;;11.80;4.30;;;;;;;14.69;75.64;99154.58;110363;1269;22141;-59
2023/04/24 07:06:33;;;;;;;11.80;4.10;;;;;;;14.73;75.05;99153.91;110369;1272;22315;-60
2023/04/24 07:09:04;;;;;;;14.40;5.10;;;;;;;14.77;74.84;99153.63;110365;1269;22182;-61
2023/04/24 07:11:35;;;;;;;13.20;4.80;;;;;;;14.81;74.74;99153.42;110329;1269;22375;-61
2023/04/24 07:14:06;;;;;;;12.20;4.20;;;;;;;14.85;74.87;99155.40;110367;1272;22175;-61
2023/04/24 07:16:37;;;;;;;14.70;5.10;;;;;;;14.88;74.52;99159.55;110334;1272;23040;-61
2023/04/24 07:19:07;;;;;;;15.40;4.60;;;;;;;14.92;74.60;99157.23;110358;1263;22201;-62
2023/04/24 07:21:38;;;;;;;16.40;5.40;;;;;;;14.96;74.27;99158.55;107533;1276;22674;-60
2023/04/24 07:24:11;;;;;;;13.80;5.40;;;;;;;15.01;74.42;99155.46;110415;1271;22807;-61
2023/04/24 07:26:42;;;;;;;13.20;4.80;;;;;;;15.08;74.14;99160.40;110343;1270;22218;-61
2023/04/24 07:29:13;;;;;;;11.10;3.80;;;;;;;15.16;73.90;99157.40;110350;1270;22137;-61
2023/04/24 07:31:44;;;;;;;14.20;4.50;;;;;;;15.26;74.39;99155.45;110376;1262;22917;-61
2023/04/24 07:34:15;;;;;;;12.60;4.40;;;;;;;15.35;73.90;99160.40;110344;1265;22168;-60
2023/04/24 07:36:47;;;;;;;9.30;3.40;;;;;;;15.44;73.35;99159.61;110356;1269;22251;-61
2023/04/24 07:39:18;;;;;;;11.40;4.00;;;;;;;15.55;72.40;99157.13;110351;1276;22206;-60
2023/04/24 07:41:49;;;;;;;14.20;3.30;;;;;;;15.67;72.04;99156.77;110347;1263;22279;-60
2023/04/24 07:44:20;;;;;;;10.10;3.20;;;;;;;15.78;71.06;99156.62;110372;1272;22164;-60
2023/04/24 07:46:51;;;;;;;9.90;2.60;;;;;;;15.88;71.03;99160.89;110342;1262;22329;-61
2023/04/24 07:49:21;;;;;;;13.30;3.60;;;;;;;15.97;71.17;99162.13;110356;1271;22271;-61
2023/04/24 07:51:53;;;;;;;13.30;3.60;;;;;;;16.04;71.20;99166.55;110325;1269;22396;-62
2023/04/24 07:54:24;;;;;;;14.20;3.80;;;;;;;16.10;70.64;99161.52;110372;1276;22220;-61
2023/04/24 07:56:55;;;;;;;12.90;3.40;;;;;;;16.13;70.06;99164.57;110353;1268;22135;-61
2023/04/24 07:59:26;;;;;;;11.10;3.40;;;;;;;16.13;69.04;99164.42;110372;1271;22204;-61
2023/04/24 08:01:57;;;;;;;11.60;3.20;;;;;;;16.13;68.35;99161.60;110383;1269;22216;-61
2023/04/24 08:04:27;;;;;;;13.10;3.10;;;;;;;16.12;67.73;99165.30;110361;1271;23105;-61
2023/04/24 08:06:58;;;;;;;9.40;3.20;;;;;;;16.11;67.74;99166.50;109193;1269;22514;-60
2023/04/24 08:09:30;;;;;;;11.30;3.60;;;;;;;16.11;67.80;99166.31;106567;1262;22623;-61
2023/04/24 08:12:01;;;;;;;13.40;3.30;;;;;;;16.08;67.58;99173.78;106538;1271;22734;-61
2023/04/24 08:14:32;;;;;;;12.40;3.90;;;;;;;16.05;67.51;99173.39;106624;1265;25265;-59
2023/04/24 08:17:03;;;;;;;15.20;3.50;;;;;;;16.03;67.83;99176.81;106600;1262;24420;-60
2023/04/24 08:19:34;;;;;;;12.60;3.10;;;;;;;16.00;68.19;99178.09;106563;1269;25273;-58
2023/04/24 08:22:05;;;;;;;8.50;2.80;;;;;;;15.96;68.04;99179.61;106654;1269;25496;-59
2023/04/24 08:24:36;;;;;;;15.20;3.30;;;;;;;15.90;67.85;99180.38;110381;1276;22162;-62
2023/04/24 08:27:07;;;;;;;11.00;3.20;;;;;;;15.83;68.10;99178.94;107852;1273;22518;-60
2023/04/24 08:29:39;;;;;;;9.30;3.90;;;;;;;15.75;69.38;99177.36;106512;1262;23034;-60
2023/04/24 08:32:09;;;;;;;12.00;4.10;;;;;;;15.64;70.07;99173.73;106747;1272;23350;-59
2023/04/24 08:34:40;;;;;;;14.80;4.30;;;;;;;15.51;70.45;99172.22;106720;1276;23024;-59
2023/04/24 08:37:12;;;;;;;13.50;4.50;;;;;;;15.43;71.27;99179.40;106700;1276;22513;-61
2023/04/24 08:39:43;;;;;;;12.40;4.70;;;;;;;15.39;72.08;99176.13;110378;1276;22218;-61
2023/04/24 08:42:16;;;;;;;14.50;7.00;;;;;;;15.39;72.76;99173.88;110367;1272;22230;-61
2023/04/24 08:44:47;;;;;;;14.20;6.00;;;;;;;15.45;73.49;99172.27;110357;1271;22850;-59
2023/04/24 08:47:18;;;;;;;13.10;5.40;;;;;;;15.54;73.92;99178.57;110374;1276;22330;-60
2023/04/24 08:49:51;;;;;;;15.60;4.60;;;;;;;15.64;73.61;99173.63;110347;1276;22218;-60
2023/04/24 08:52:22;;;;;;;12.80;5.20;;;;;;;15.73;73.87;99178.77;110366;1262;22848;-61
2023/04/24 08:54:54;;;;;;;11.60;4.80;;;;;;;15.84;74.19;99177.45;110332;1269;22411;-61
2023/04/24 08:57:25;;;;;;;12.50;4.40;;;;;;;15.94;74.28;99181.02;110382;1269;23199;-61
2023/04/24 08:59:58;;;;;;;14.80;5.60;;;;;;;16.05;74.28;99185.87;110373;1271;23012;-61
2023/04/24 09:02:29;;;;;;;21.10;6.70;;;;;;;16.14;73.53;99182.22;110383;1269;23036;-62
2023/04/24 09:05:01;;;;;;;14.00;6.30;;;;;;;16.18;72.89;99174.69;110399;1270;22161;-61
2023/04/24 09:07:35;;;;;;;22.30;8.10;;;;;;;16.24;73.28;99176.70;110363;1271;22467;-61
2023/04/24 09:10:07;;;;;;;16.90;5.90;;;;;;;16.29;73.00;99177.65;110370;1269;22253;-61
2023/04/24 09:12:38;;;;;;;13.10;5.90;;;;;;;16.34;72.70;99178.73;110362;1276;22218;-61
2023/04/24 09:15:11;;;;;;;10.60;4.50;;;;;;;16.39;72.96;99178.98;110403;1271;22203;-61
2023/04/24 09:17:44;;;;;;;16.60;5.90;;;;;;;16.48;73.30;99185.72;107613;1269;22534;-60
2023/04/24 09:20:15;;;;;;;12.80;5.80;;;;;;;16.59;73.49;99184.26;106427;1271;22593;-62
2023/04/24 09:22:48;;;;;;;18.00;7.10;;;;;;;16.70;72.66;99183.50;106445;1262;22762;-61
2023/04/24 09:25:20;;;;;;;13.80;6.50;;;;;;;16.78;72.06;99182.39;106451;1262;23068;-61
2023/04/24 09:27:54;;;;;;;15.50;5.30;;;;;;;16.86;71.94;99178.19;106442;1269;22730;-60
2023/04/24 09:30:25;;;;;;;14.40;5.30;;;;;;;16.93;71.55;99183.20;110381;1276;22141;-61
2023/04/24 09:33:13;;;;;;;12.90;4.00;;;;;;;16.98;71.30;99178.02;110317;1271;22258;-61
2023/04/24 09:35:49;;;;;;;13.40;5.10;;;;;;;17.04;70.85;99175.78;110365;1271;22239;-61
2023/04/24 09:38:28;;;;;;;12.40;4.30;;;;;;;17.11;70.40;99170.48;107053;1273;24303;-61
2023/04/24 09:41:03;;;;;;;12.80;4.00;;;;;;;17.18;69.24;99170.20;106388;1276;24279;-59
2023/04/24 09:43:35;;;;;;;12.60;4.70;;;;;;;17.20;68.93;99168.40;110383;1265;22375;-61
2023/04/24 09:46:09;;;;;;;13.40;4.30;;;;;;;17.21;69.01;99167.27;107037;1262;25298;-61
2023/04/24 09:48:40;;;;;;;12.20;4.00;;;;;;;17.20;68.70;99165.79;110378;1269;22137;-62
2023/04/24 09:51:15;;;;;;;11.70;4.50;;;;;;;17.21;69.10;99159.25;110387;1271;22238;-61
2023/04/24 09:53:53;;;;;;;10.80;4.20;;;;;;;17.27;69.12;99153.02;110373;1265;22155;-61
2023/04/24 09:56:26;;;;;;;12.80;4.60;;;;;;;17.33;69.02;99148.86;110380;1271;22135;-62
2023/04/24 09:59:16;;;;;;;15.90;5.80;;;;;;;17.38;69.00;99148.69;110308;1271;22984;-61
2023/04/24 10:01:49;;;;;;;12.60;5.20;;;;;;;17.42;68.35;99144.71;110382;1272;22245;-62
2023/04/24 10:04:22;;;;;;;12.70;4.50;;;;;;;17.44;67.99;99141.98;110419;1273;22914;-61
2023/04/24 10:06:55;;;;;;;8.60;3.40;;;;;;;17.46;67.89;99142.60;110396;1262;22781;-62
2023/04/24 10:09:28;;;;;;;9.60;3.70;;;;;;;17.50;67.93;99138.73;110388;1269;22191;-61
2023/04/24 10:12:01;;;;;;;10.70;3.90;;;;;;;17.55;67.77;99145.38;110361;1271;22143;-61
2023/04/24 10:14:33;;;;;;;11.70;3.60;;;;;;;17.60;67.46;99145.55;110363;1273;22314;-62
2023/04/24 10:17:05;;;;;;;10.80;3.80;;;;;;;17.62;67.40;99146.48;110384;1265;22207;-62
2023/04/24 10:19:38;;;;;;;9.60;3.20;;;;;;;17.65;67.21;99140.07;110384;1270;22141;-62
2023/04/24 10:22:10;;;;;;;8.60;3.50;;;;;;;17.68;66.94;99137.64;110388;1269;22184;-62
2023/04/24 10:24:41;;;;;;;9.20;2.90;;;;;;;17.71;66.70;99139.61;110410;1269;22812;-62
2023/04/24 10:27:15;;;;;;;9.30;3.10;;;;;;;17.69;65.97;99146.08;110398;1276;22143;-61
2023/04/24 10:29:46;;;;;;;13.00;3.70;;;;;;;17.72;66.40;99144.25;110381;1271;22217;-62
2023/04/24 10:32:17;;;;;;;10.90;3.50;;;;;;;17.79;66.25;99139.58;110371;1273;22114;-62
2023/04/24 10:34:48;;;;;;;9.60;3.30;;;;;;;17.88;66.47;99145.23;108141;1273;25402;-61
2023/04/24 10:37:20;;;;;;;10.20;3.00;;;;;;;17.96;65.85;99150.13;106631;1273;24278;-62
2023/04/24 10:39:54;;;;;;;11.30;4.10;;;;;;;18.01;65.43;99148.22;106346;1269;25380;-61
2023/04/24 10:42:28;;;;;;;13.60;4.30;;;;;;;18.05;65.21;99150.16;108748;1276;25467;-61
2023/04/24 10:45:01;;;;;;;12.20;4.50;;;;;;;18.10;65.62;99150.27;108058;1272;24272;-61
2023/04/24 10:47:42;;;;;;;8.90;3.50;;;;;;;18.18;65.46;99148.08;108051;1273;22673;-61
2023/04/24 10:50:14;;;;;;;10.00;3.60;;;;;;;18.26;65.18;99151.55;110380;1265;22154;-61
2023/04/24 10:52:51;;;;;;;11.00;4.40;;;;;;;18.28;64.75;99150.20;108480;1273;27824;-61
2023/04/24 10:55:42;;;;;;;15.00;5.00;;;;;;;18.30;64.82;99149.23;110424;1272;22160;-61
2023/04/24 10:58:14;;;;;;;15.20;4.70;;;;;;;18.30;64.70;99154.25;108282;1273;23275;-61
2023/04/24 11:00:56;;;;;;;11.80;4.40;;;;;;;18.28;63.86;99151.67;106528;1262;24404;-61
2023/04/24 11:03:29;;;;;;;13.60;4.70;;;;;;;18.22;64.20;99149.48;110272;1269;22167;-61
2023/04/24 11:06:03;;;;;;;19.40;5.20;;;;;;;18.18;64.33;99148.95;110377;1272;22139;-62
2023/04/24 11:08:40;;;;;;;13.70;5.50;;;;;;;18.12;63.68;99151.50;110430;1272;22301;-62
2023/04/24 11:11:17;;;;;;;14.80;4.40;;;;;;;18.08;63.60;99151.36;108686;1253;25301;-61
2023/04/24 11:14:09;;;;;;;12.50;4.60;;;;;;;18.07;63.69;99153.75;106555;1276;25107;-61
2023/04/24 11:16:45;;;;;;;12.60;4.60;;;;;;;18.06;63.85;99154.66;108784;1268;25340;-61
2023/04/24 11:19:26;;;;;;;14.30;3.90;;;;;;;18.08;63.90;99149.40;106539;1258;22532;-61
2023/04/24 11:22:02;;;;;;;12.90;4.20;;;;;;;18.22;64.04;99146.64;108803;1269;24227;-62
2023/04/24 11:24:39;;;;;;;11.40;3.40;;;;;;;18.40;63.77;99141.23;104222;1276;5504260;-62
2023/04/24 11:27:17;;;;;;;9.60;4.00;;;;;;;18.49;62.69;99141.02;108021;1270;25684;-61
2023/04/24 11:29:49;;;;;;;11.30;3.60;;;;;;;18.49;62.06;99142.83;110420;1273;22125;-62
2023/04/24 11:32:27;;;;;;;10.30;3.10;;;;;;;18.53;62.49;99144.60;106725;1273;25519;-61
2023/04/24 11:35:00;;;;;;;10.80;3.00;;;;;;;18.59;61.71;99144.67;110317;1274;22214;-62